sensor_id;sensor_type;location;lat;lon;timestamp;P1;durP1;ratioP1;P2;durP2;ratioP2
52620;SDS011;38515;53.160;6.990;2022-11-20T00:01:08;1999.90;;;999.90;;
52620;SDS011;38515;53.160;6.990;2022-11-20T00:03:53;1999.90;;;999.90;;
52620;SDS011;38515;53.160;6.990;2022-11-20T00:06:21;1999.90;;;999.90;;
52620;SDS011;38515;53.160;6.990;2022-11-20T00:08:48;1999.90;;;999.90;;
52620;SDS011;38515;53.160;6.990;2022-11-20T00:11:21;1999.90;;;999.90;;
52620;SDS011;38515;53.160;6.990;2022-11-20T00:13:52;1999.90;;;999.90;;
52620;SDS011;38515;53.160;6.990;2022-11-20T00:16:22;1999.90;;;999.90;;
52620;SDS011;38515;53.160;6.990;2022-11-20T00:18:49;1999.90;;;999.90;;
52620;SDS011;38515;53.160;6.990;2022-11-20T00:21:22;1999.90;;;999.90;;
52620;SDS011;38515;53.160;6.990;2022-11-20T00:23:51;1999.90;;;999.90;;
52620;SDS011;38515;53.160;6.990;2022-11-20T00:26:19;1999.90;;;999.90;;
52620;SDS011;38515;53.160;6.990;2022-11-20T00:31:38;1999.90;;;999.90;;
52620;SDS011;38515;53.160;6.990;2022-11-20T00:34:04;1999.90;;;999.90;;
52620;SDS011;38515;53.160;6.990;2022-11-20T00:36:31;1999.90;;;999.90;;
52620;SDS011;38515;53.160;6.990;2022-11-20T00:38:58;1999.90;;;999.90;;
52620;SDS011;38515;53.160;6.990;2022-11-20T00:41:25;1999.90;;;999.90;;
52620;SDS011;38515;53.160;6.990;2022-11-20T00:43:53;1999.90;;;999.90;;
52620;SDS011;38515;53.160;6.990;2022-11-20T00:46:23;1999.90;;;999.90;;
52620;SDS011;38515;53.160;6.990;2022-11-20T00:48:50;1999.90;;;999.90;;
52620;SDS011;38515;53.160;6.990;2022-11-20T00:51:17;1999.90;;;999.90;;
52620;SDS011;38515;53.160;6.990;2022-11-20T00:53:45;1999.90;;;999.90;;
52620;SDS011;38515;53.160;6.990;2022-11-20T00:56:15;1999.90;;;999.90;;
52620;SDS011;38515;53.160;6.990;2022-11-20T00:58:43;1999.90;;;999.90;;
52620;SDS011;38515;53.160;6.990;2022-11-20T01:03:39;1999.90;;;999.90;;
52620;SDS011;38515;53.160;6.990;2022-11-20T01:06:10;1999.90;;;999.90;;
52620;SDS011;38515;53.160;6.990;2022-11-20T01:08:38;1999.90;;;999.90;;
52620;SDS011;38515;53.160;6.990;2022-11-20T01:11:06;1999.90;;;999.90;;
52620;SDS011;38515;53.160;6.990;2022-11-20T01:13:34;1999.90;;;999.90;;
52620;SDS011;38515;53.160;6.990;2022-11-20T01:16:05;1999.90;;;999.90;;
52620;SDS011;38515;53.160;6.990;2022-11-20T01:18:41;1999.90;;;999.90;;
52620;SDS011;38515;53.160;6.990;2022-11-20T01:21:20;1999.90;;;999.90;;
52620;SDS011;38515;53.160;6.990;2022-11-20T01:23:53;1999.90;;;999.90;;
52620;SDS011;38515;53.160;6.990;2022-11-20T01:26:21;1999.90;;;999.90;;
52620;SDS011;38515;53.160;6.990;2022-11-20T01:28:51;1999.90;;;999.90;;
52620;SDS011;38515;53.160;6.990;2022-11-20T01:31:20;1999.90;;;999.90;;
52620;SDS011;38515;53.160;6.990;2022-11-20T01:33:48;1999.90;;;999.90;;
52620;SDS011;38515;53.160;6.990;2022-11-20T01:36:17;1999.90;;;999.90;;
52620;SDS011;38515;53.160;6.990;2022-11-20T01:38:43;1999.90;;;999.90;;
52620;SDS011;38515;53.160;6.990;2022-11-20T01:41:10;1999.90;;;999.90;;
52620;SDS011;38515;53.160;6.990;2022-11-20T01:43:56;1999.90;;;999.90;;
52620;SDS011;38515;53.160;6.990;2022-11-20T01:46:22;1999.90;;;999.90;;
52620;SDS011;38515;53.160;6.990;2022-11-20T01:49:32;1999.90;;;999.90;;
52620;SDS011;38515;53.160;6.990;2022-11-20T01:54:22;1999.90;;;999.90;;
52620;SDS011;38515;53.160;6.990;2022-11-20T01:56:55;1999.90;;;999.90;;
52620;SDS011;38515;53.160;6.990;2022-11-20T01:59:22;1999.90;;;999.90;;
52620;SDS011;38515;53.160;6.990;2022-11-20T02:01:50;1999.90;;;999.90;;
52620;SDS011;38515;53.160;6.990;2022-11-20T02:04:16;1999.90;;;999.90;;
52620;SDS011;38515;53.160;6.990;2022-11-20T02:06:50;1999.90;;;999.90;;
52620;SDS011;38515;53.160;6.990;2022-11-20T02:09:21;1999.90;;;999.90;;
52620;SDS011;38515;53.160;6.990;2022-11-20T02:11:47;1999.90;;;999.90;;
52620;SDS011;38515;53.160;6.990;2022-11-20T02:14:13;1999.90;;;999.90;;
52620;SDS011;38515;53.160;6.990;2022-11-20T02:16:40;1999.90;;;999.90;;
52620;SDS011;38515;53.160;6.990;2022-11-20T02:19:43;1999.90;;;999.90;;
52620;SDS011;38515;53.160;6.990;2022-11-20T02:22:07;1999.90;;;999.90;;
52620;SDS011;38515;53.160;6.990;2022-11-20T02:24:42;1999.90;;;999.90;;
52620;SDS011;38515;53.160;6.990;2022-11-20T02:27:14;1999.90;;;999.90;;
52620;SDS011;38515;53.160;6.990;2022-11-20T02:29:45;1999.90;;;999.90;;
52620;SDS011;38515;53.160;6.990;2022-11-20T02:32:18;1999.90;;;999.90;;
52620;SDS011;38515;53.160;6.990;2022-11-20T02:34:45;1999.90;;;999.90;;
52620;SDS011;38515;53.160;6.990;2022-11-20T02:37:11;1999.90;;;999.90;;
52620;SDS011;38515;53.160;6.990;2022-11-20T02:39:37;1999.90;;;999.90;;
52620;SDS011;38515;53.160;6.990;2022-11-20T02:42:03;1999.90;;;999.90;;
52620;SDS011;38515;53.160;6.990;2022-11-20T02:44:29;1999.90;;;999.90;;
52620;SDS011;38515;53.160;6.990;2022-11-20T02:46:56;1999.90;;;999.90;;
52620;SDS011;38515;53.160;6.990;2022-11-20T02:49:23;1999.90;;;999.90;;
52620;SDS011;38515;53.160;6.990;2022-11-20T02:51:49;1999.90;;;999.90;;
52620;SDS011;38515;53.160;6.990;2022-11-20T02:54:16;1999.90;;;999.90;;
52620;SDS011;38515;53.160;6.990;2022-11-20T02:56:41;1999.90;;;999.90;;
52620;SDS011;38515;53.160;6.990;2022-11-20T02:59:08;1999.90;;;999.90;;
52620;SDS011;38515;53.160;6.990;2022-11-20T03:01:35;1999.90;;;999.90;;
52620;SDS011;38515;53.160;6.990;2022-11-20T03:04:01;1999.90;;;999.90;;
52620;SDS011;38515;53.160;6.990;2022-11-20T03:06:27;1999.90;;;999.90;;
52620;SDS011;38515;53.160;6.990;2022-11-20T03:08:53;1999.90;;;999.90;;
52620;SDS011;38515;53.160;6.990;2022-11-20T03:11:19;1999.90;;;999.90;;
52620;SDS011;38515;53.160;6.990;2022-11-20T03:13:45;1999.90;;;999.90;;
52620;SDS011;38515;53.160;6.990;2022-11-20T03:16:12;1999.90;;;999.90;;
52620;SDS011;38515;53.160;6.990;2022-11-20T03:18:41;1999.90;;;999.90;;
52620;SDS011;38515;53.160;6.990;2022-11-20T03:21:07;1999.90;;;999.90;;
52620;SDS011;38515;53.160;6.990;2022-11-20T03:23:35;1999.90;;;999.90;;
52620;SDS011;38515;53.160;6.990;2022-11-20T03:26:12;1999.90;;;999.90;;
52620;SDS011;38515;53.160;6.990;2022-11-20T03:28:49;1999.90;;;999.90;;
52620;SDS011;38515;53.160;6.990;2022-11-20T03:31:30;1999.90;;;999.90;;
52620;SDS011;38515;53.160;6.990;2022-11-20T03:34:00;1999.90;;;999.90;;
52620;SDS011;38515;53.160;6.990;2022-11-20T03:36:27;1999.90;;;999.90;;
52620;SDS011;38515;53.160;6.990;2022-11-20T03:38:56;1999.90;;;999.90;;
52620;SDS011;38515;53.160;6.990;2022-11-20T03:41:23;1999.90;;;999.90;;
52620;SDS011;38515;53.160;6.990;2022-11-20T03:43:55;1999.90;;;999.90;;
52620;SDS011;38515;53.160;6.990;2022-11-20T03:46:22;1999.90;;;999.90;;
52620;SDS011;38515;53.160;6.990;2022-11-20T03:48:49;1999.90;;;999.90;;
52620;SDS011;38515;53.160;6.990;2022-11-20T03:56:18;1999.90;;;999.90;;
52620;SDS011;38515;53.160;6.990;2022-11-20T03:58:45;1999.90;;;999.90;;
52620;SDS011;38515;53.160;6.990;2022-11-20T04:01:12;1999.90;;;999.90;;
52620;SDS011;38515;53.160;6.990;2022-11-20T04:03:39;1999.90;;;999.90;;
52620;SDS011;38515;53.160;6.990;2022-11-20T04:06:07;1999.90;;;999.90;;
52620;SDS011;38515;53.160;6.990;2022-11-20T04:08:36;1999.90;;;999.90;;
52620;SDS011;38515;53.160;6.990;2022-11-20T04:13:38;1999.90;;;999.90;;
52620;SDS011;38515;53.160;6.990;2022-11-20T04:16:05;1999.90;;;999.90;;
52620;SDS011;38515;53.160;6.990;2022-11-20T04:18:32;1999.90;;;999.90;;
52620;SDS011;38515;53.160;6.990;2022-11-20T04:20:58;1999.90;;;999.90;;
52620;SDS011;38515;53.160;6.990;2022-11-20T04:23:24;1999.90;;;999.90;;
52620;SDS011;38515;53.160;6.990;2022-11-20T04:25:51;1999.90;;;999.90;;
52620;SDS011;38515;53.160;6.990;2022-11-20T04:28:17;1999.90;;;999.90;;
52620;SDS011;38515;53.160;6.990;2022-11-20T04:30:43;1999.90;;;999.90;;
52620;SDS011;38515;53.160;6.990;2022-11-20T04:33:08;1999.90;;;999.90;;
52620;SDS011;38515;53.160;6.990;2022-11-20T04:35:35;1999.90;;;999.90;;
52620;SDS011;38515;53.160;6.990;2022-11-20T04:38:01;1999.90;;;999.90;;
52620;SDS011;38515;53.160;6.990;2022-11-20T04:40:27;1999.90;;;999.90;;
52620;SDS011;38515;53.160;6.990;2022-11-20T04:42:54;1999.90;;;999.90;;
52620;SDS011;38515;53.160;6.990;2022-11-20T04:45:20;1999.90;;;999.90;;
52620;SDS011;38515;53.160;6.990;2022-11-20T04:47:47;1999.90;;;999.90;;
52620;SDS011;38515;53.160;6.990;2022-11-20T04:50:13;1999.90;;;999.90;;
52620;SDS011;38515;53.160;6.990;2022-11-20T04:52:39;1999.90;;;999.90;;
52620;SDS011;38515;53.160;6.990;2022-11-20T04:55:05;1999.90;;;999.90;;
52620;SDS011;38515;53.160;6.990;2022-11-20T04:57:31;1999.90;;;999.90;;
52620;SDS011;38515;53.160;6.990;2022-11-20T04:59:57;1999.90;;;999.90;;
52620;SDS011;38515;53.160;6.990;2022-11-20T05:02:23;1999.90;;;999.90;;
52620;SDS011;38515;53.160;6.990;2022-11-20T05:04:48;1999.90;;;999.90;;
52620;SDS011;38515;53.160;6.990;2022-11-20T05:07:14;1999.90;;;999.90;;
52620;SDS011;38515;53.160;6.990;2022-11-20T05:09:40;1999.90;;;999.90;;
52620;SDS011;38515;53.160;6.990;2022-11-20T05:12:09;1999.90;;;999.90;;
52620;SDS011;38515;53.160;6.990;2022-11-20T05:14:35;1999.90;;;999.90;;
52620;SDS011;38515;53.160;6.990;2022-11-20T05:17:01;1999.90;;;999.90;;
52620;SDS011;38515;53.160;6.990;2022-11-20T05:19:27;1999.90;;;999.90;;
52620;SDS011;38515;53.160;6.990;2022-11-20T05:21:52;1999.90;;;999.90;;
52620;SDS011;38515;53.160;6.990;2022-11-20T05:24:18;1999.90;;;999.90;;
52620;SDS011;38515;53.160;6.990;2022-11-20T05:26:44;1999.90;;;999.90;;
52620;SDS011;38515;53.160;6.990;2022-11-20T05:29:10;1999.90;;;999.90;;
52620;SDS011;38515;53.160;6.990;2022-11-20T05:31:38;1999.90;;;999.90;;
52620;SDS011;38515;53.160;6.990;2022-11-20T05:34:05;1999.90;;;999.90;;
52620;SDS011;38515;53.160;6.990;2022-11-20T05:36:31;1999.90;;;999.90;;
52620;SDS011;38515;53.160;6.990;2022-11-20T05:38:58;1999.90;;;999.90;;
52620;SDS011;38515;53.160;6.990;2022-11-20T05:41:24;1999.90;;;999.90;;
52620;SDS011;38515;53.160;6.990;2022-11-20T05:43:50;1999.90;;;999.90;;
52620;SDS011;38515;53.160;6.990;2022-11-20T05:46:17;1999.90;;;999.90;;
52620;SDS011;38515;53.160;6.990;2022-11-20T05:48:45;1999.90;;;999.90;;
52620;SDS011;38515;53.160;6.990;2022-11-20T05:51:12;1999.90;;;999.90;;
52620;SDS011;38515;53.160;6.990;2022-11-20T05:53:42;1999.90;;;999.90;;
52620;SDS011;38515;53.160;6.990;2022-11-20T05:56:10;1999.90;;;999.90;;
52620;SDS011;38515;53.160;6.990;2022-11-20T05:58:37;1999.90;;;999.90;;
52620;SDS011;38515;53.160;6.990;2022-11-20T06:01:07;1999.90;;;999.90;;
52620;SDS011;38515;53.160;6.990;2022-11-20T06:03:34;1999.90;;;999.90;;
52620;SDS011;38515;53.160;6.990;2022-11-20T06:06:00;1999.90;;;999.90;;
52620;SDS011;38515;53.160;6.990;2022-11-20T06:08:27;1999.90;;;999.90;;
52620;SDS011;38515;53.160;6.990;2022-11-20T06:10:53;1999.90;;;999.90;;
52620;SDS011;38515;53.160;6.990;2022-11-20T06:13:19;1999.90;;;999.90;;
52620;SDS011;38515;53.160;6.990;2022-11-20T06:15:49;1999.90;;;999.90;;
52620;SDS011;38515;53.160;6.990;2022-11-20T06:18:15;1999.90;;;999.90;;
52620;SDS011;38515;53.160;6.990;2022-11-20T06:20:41;1999.90;;;999.90;;
52620;SDS011;38515;53.160;6.990;2022-11-20T06:23:06;1999.90;;;999.90;;
52620;SDS011;38515;53.160;6.990;2022-11-20T06:25:32;1999.90;;;999.90;;
52620;SDS011;38515;53.160;6.990;2022-11-20T06:27:58;1999.90;;;999.90;;
52620;SDS011;38515;53.160;6.990;2022-11-20T06:30:24;1999.90;;;999.90;;
52620;SDS011;38515;53.160;6.990;2022-11-20T06:32:49;1999.90;;;999.90;;
52620;SDS011;38515;53.160;6.990;2022-11-20T06:35:15;1999.90;;;999.90;;
52620;SDS011;38515;53.160;6.990;2022-11-20T06:37:41;1999.90;;;999.90;;
52620;SDS011;38515;53.160;6.990;2022-11-20T06:40:07;1999.90;;;999.90;;
52620;SDS011;38515;53.160;6.990;2022-11-20T06:42:34;1999.90;;;999.90;;
52620;SDS011;38515;53.160;6.990;2022-11-20T06:45:00;1999.90;;;999.90;;
52620;SDS011;38515;53.160;6.990;2022-11-20T06:47:26;1999.90;;;999.90;;
52620;SDS011;38515;53.160;6.990;2022-11-20T06:49:51;1999.90;;;999.90;;
52620;SDS011;38515;53.160;6.990;2022-11-20T06:52:17;1999.90;;;999.90;;
52620;SDS011;38515;53.160;6.990;2022-11-20T06:54:43;1999.90;;;999.90;;
52620;SDS011;38515;53.160;6.990;2022-11-20T06:57:09;1999.90;;;999.90;;
52620;SDS011;38515;53.160;6.990;2022-11-20T06:59:35;1999.90;;;999.90;;
52620;SDS011;38515;53.160;6.990;2022-11-20T07:02:01;1999.90;;;999.90;;
52620;SDS011;38515;53.160;6.990;2022-11-20T07:04:27;1999.90;;;999.90;;
52620;SDS011;38515;53.160;6.990;2022-11-20T07:06:53;1999.90;;;999.90;;
52620;SDS011;38515;53.160;6.990;2022-11-20T07:09:18;1999.90;;;999.90;;
52620;SDS011;38515;53.160;6.990;2022-11-20T07:11:44;1999.90;;;999.90;;
52620;SDS011;38515;53.160;6.990;2022-11-20T07:14:10;1999.90;;;999.90;;
52620;SDS011;38515;53.160;6.990;2022-11-20T07:16:36;1999.90;;;999.90;;
52620;SDS011;38515;53.160;6.990;2022-11-20T07:19:02;1999.90;;;999.90;;
52620;SDS011;38515;53.160;6.990;2022-11-20T07:21:28;1999.90;;;999.90;;
52620;SDS011;38515;53.160;6.990;2022-11-20T07:23:53;1999.90;;;999.90;;
52620;SDS011;38515;53.160;6.990;2022-11-20T07:26:20;1999.90;;;999.90;;
52620;SDS011;38515;53.160;6.990;2022-11-20T07:28:46;1999.90;;;999.90;;
52620;SDS011;38515;53.160;6.990;2022-11-20T07:31:12;1999.90;;;999.90;;
52620;SDS011;38515;53.160;6.990;2022-11-20T07:33:38;1999.90;;;999.90;;
52620;SDS011;38515;53.160;6.990;2022-11-20T07:36:04;1999.90;;;999.90;;
52620;SDS011;38515;53.160;6.990;2022-11-20T07:38:30;1999.90;;;999.90;;
52620;SDS011;38515;53.160;6.990;2022-11-20T07:40:56;1999.90;;;999.90;;
52620;SDS011;38515;53.160;6.990;2022-11-20T07:43:23;1999.90;;;999.90;;
52620;SDS011;38515;53.160;6.990;2022-11-20T07:45:50;1999.90;;;999.90;;
52620;SDS011;38515;53.160;6.990;2022-11-20T07:48:16;1999.90;;;999.90;;
52620;SDS011;38515;53.160;6.990;2022-11-20T07:50:42;1999.90;;;999.90;;
52620;SDS011;38515;53.160;6.990;2022-11-20T07:53:07;1999.90;;;999.90;;
52620;SDS011;38515;53.160;6.990;2022-11-20T07:55:33;1999.90;;;999.90;;
52620;SDS011;38515;53.160;6.990;2022-11-20T07:57:59;1999.90;;;999.90;;
52620;SDS011;38515;53.160;6.990;2022-11-20T08:00:26;1999.90;;;999.90;;
52620;SDS011;38515;53.160;6.990;2022-11-20T08:02:52;1999.90;;;999.90;;
52620;SDS011;38515;53.160;6.990;2022-11-20T08:05:18;1999.90;;;999.90;;
52620;SDS011;38515;53.160;6.990;2022-11-20T08:07:44;1999.90;;;999.90;;
52620;SDS011;38515;53.160;6.990;2022-11-20T08:10:11;1999.90;;;999.90;;
52620;SDS011;38515;53.160;6.990;2022-11-20T08:12:49;1999.90;;;999.90;;
52620;SDS011;38515;53.160;6.990;2022-11-20T08:15:35;1999.90;;;999.90;;
52620;SDS011;38515;53.160;6.990;2022-11-20T08:18:02;1999.90;;;999.90;;
52620;SDS011;38515;53.160;6.990;2022-11-20T08:20:30;1999.90;;;999.90;;
52620;SDS011;38515;53.160;6.990;2022-11-20T08:23:00;1999.90;;;999.90;;
52620;SDS011;38515;53.160;6.990;2022-11-20T08:25:28;1999.90;;;999.90;;
52620;SDS011;38515;53.160;6.990;2022-11-20T08:27:56;1999.90;;;999.90;;
52620;SDS011;38515;53.160;6.990;2022-11-20T08:30:23;1999.90;;;999.90;;
52620;SDS011;38515;53.160;6.990;2022-11-20T08:32:49;1999.90;;;999.90;;
52620;SDS011;38515;53.160;6.990;2022-11-20T08:35:15;1999.90;;;999.90;;
52620;SDS011;38515;53.160;6.990;2022-11-20T08:37:41;1999.90;;;999.90;;
52620;SDS011;38515;53.160;6.990;2022-11-20T08:40:09;1999.90;;;999.90;;
52620;SDS011;38515;53.160;6.990;2022-11-20T08:42:36;1999.90;;;999.90;;
52620;SDS011;38515;53.160;6.990;2022-11-20T08:45:02;1999.90;;;999.90;;
52620;SDS011;38515;53.160;6.990;2022-11-20T08:47:29;1999.90;;;999.90;;
52620;SDS011;38515;53.160;6.990;2022-11-20T08:49:55;1999.90;;;999.90;;
52620;SDS011;38515;53.160;6.990;2022-11-20T08:52:21;1999.90;;;999.90;;
52620;SDS011;38515;53.160;6.990;2022-11-20T08:54:47;1999.90;;;999.90;;
52620;SDS011;38515;53.160;6.990;2022-11-20T08:57:13;1999.90;;;999.90;;
52620;SDS011;38515;53.160;6.990;2022-11-20T08:59:39;1999.90;;;999.90;;
52620;SDS011;38515;53.160;6.990;2022-11-20T09:02:05;1999.90;;;999.90;;
52620;SDS011;38515;53.160;6.990;2022-11-20T09:04:31;1999.90;;;999.90;;
52620;SDS011;38515;53.160;6.990;2022-11-20T09:06:56;1999.90;;;999.90;;
52620;SDS011;38515;53.160;6.990;2022-11-20T09:09:25;1999.90;;;999.90;;
52620;SDS011;38515;53.160;6.990;2022-11-20T09:11:51;1999.90;;;999.90;;
52620;SDS011;38515;53.160;6.990;2022-11-20T09:14:17;1999.90;;;999.90;;
52620;SDS011;38515;53.160;6.990;2022-11-20T09:16:44;1999.90;;;999.90;;
52620;SDS011;38515;53.160;6.990;2022-11-20T09:19:11;1999.90;;;999.90;;
52620;SDS011;38515;53.160;6.990;2022-11-20T09:21:37;1999.90;;;999.90;;
52620;SDS011;38515;53.160;6.990;2022-11-20T09:24:02;1999.90;;;999.90;;
52620;SDS011;38515;53.160;6.990;2022-11-20T09:26:30;1999.90;;;999.90;;
52620;SDS011;38515;53.160;6.990;2022-11-20T09:28:55;1999.90;;;999.90;;
52620;SDS011;38515;53.160;6.990;2022-11-20T09:31:22;1999.90;;;999.90;;
52620;SDS011;38515;53.160;6.990;2022-11-20T09:33:49;1999.90;;;999.90;;
52620;SDS011;38515;53.160;6.990;2022-11-20T09:36:15;1999.90;;;999.90;;
52620;SDS011;38515;53.160;6.990;2022-11-20T09:38:44;1999.90;;;999.90;;
52620;SDS011;38515;53.160;6.990;2022-11-20T09:41:19;1999.90;;;999.90;;
52620;SDS011;38515;53.160;6.990;2022-11-20T09:55:21;1999.90;;;999.90;;
52620;SDS011;38515;53.160;6.990;2022-11-20T09:57:48;1999.90;;;999.90;;
52620;SDS011;38515;53.160;6.990;2022-11-20T10:00:16;1999.90;;;999.90;;
52620;SDS011;38515;53.160;6.990;2022-11-20T10:05:17;1999.90;;;999.90;;
52620;SDS011;38515;53.160;6.990;2022-11-20T10:08:01;1999.90;;;999.90;;
52620;SDS011;38515;53.160;6.990;2022-11-20T10:10:43;1999.90;;;999.90;;
52620;SDS011;38515;53.160;6.990;2022-11-20T10:19:20;1999.90;;;999.90;;
52620;SDS011;38515;53.160;6.990;2022-11-20T10:28:02;1999.90;;;999.90;;
52620;SDS011;38515;53.160;6.990;2022-11-20T10:30:38;1999.90;;;999.90;;
52620;SDS011;38515;53.160;6.990;2022-11-20T10:33:15;1999.90;;;999.90;;
52620;SDS011;38515;53.160;6.990;2022-11-20T10:35:45;1999.90;;;999.90;;
52620;SDS011;38515;53.160;6.990;2022-11-20T10:38:21;1999.90;;;999.90;;
52620;SDS011;38515;53.160;6.990;2022-11-20T10:43:44;1999.90;;;999.90;;
52620;SDS011;38515;53.160;6.990;2022-11-20T10:46:20;1999.90;;;999.90;;
52620;SDS011;38515;53.160;6.990;2022-11-20T10:48:48;1999.90;;;999.90;;
52620;SDS011;38515;53.160;6.990;2022-11-20T10:51:25;1999.90;;;999.90;;
52620;SDS011;38515;53.160;6.990;2022-11-20T11:01:51;1680.40;;;912.47;;
52620;SDS011;38515;53.160;6.990;2022-11-20T11:07:08;785.45;;;705.88;;
52620;SDS011;38515;53.160;6.990;2022-11-20T11:09:46;1130.45;;;997.35;;
52620;SDS011;38515;53.160;6.990;2022-11-20T11:12:14;988.78;;;878.85;;
52620;SDS011;38515;53.160;6.990;2022-11-20T11:14:46;1249.47;;;999.90;;
52620;SDS011;38515;53.160;6.990;2022-11-20T11:17:26;1272.57;;;999.90;;
52620;SDS011;38515;53.160;6.990;2022-11-20T11:20:02;1298.07;;;999.90;;
52620;SDS011;38515;53.160;6.990;2022-11-20T11:22:46;1200.80;;;999.90;;
52620;SDS011;38515;53.160;6.990;2022-11-20T11:28:03;1201.93;;;999.90;;
52620;SDS011;38515;53.160;6.990;2022-11-20T11:30:42;1194.13;;;999.90;;
52620;SDS011;38515;53.160;6.990;2022-11-20T11:33:23;1252.63;;;999.90;;
52620;SDS011;38515;53.160;6.990;2022-11-20T11:35:58;1379.80;;;999.90;;
52620;SDS011;38515;53.160;6.990;2022-11-20T11:38:42;1295.28;;;999.90;;
52620;SDS011;38515;53.160;6.990;2022-11-20T11:41:12;1299.88;;;999.90;;
52620;SDS011;38515;53.160;6.990;2022-11-20T11:43:54;1258.05;;;999.90;;
52620;SDS011;38515;53.160;6.990;2022-11-20T11:46:43;1168.85;;;999.90;;
52620;SDS011;38515;53.160;6.990;2022-11-20T11:49:21;1094.22;;;975.08;;
52620;SDS011;38515;53.160;6.990;2022-11-20T11:52:02;1272.00;;;999.90;;
52620;SDS011;38515;53.160;6.990;2022-11-20T11:54:44;835.55;;;775.25;;
52620;SDS011;38515;53.160;6.990;2022-11-20T12:00:22;901.15;;;831.05;;
52620;SDS011;38515;53.160;6.990;2022-11-20T12:03:02;733.65;;;675.63;;
52620;SDS011;38515;53.160;6.990;2022-11-20T12:16:26;888.15;;;836.88;;
52620;SDS011;38515;53.160;6.990;2022-11-20T12:18:53;1258.95;;;999.90;;
52620;SDS011;38515;53.160;6.990;2022-11-20T12:21:20;581.15;;;539.78;;
52620;SDS011;38515;53.160;6.990;2022-11-20T12:29:48;1106.32;;;996.17;;
52620;SDS011;38515;53.160;6.990;2022-11-20T12:47:28;635.17;;;599.05;;
52620;SDS011;38515;53.160;6.990;2022-11-20T13:07:00;1978.57;;;999.90;;
52620;SDS011;38515;53.160;6.990;2022-11-20T13:09:58;1546.95;;;999.90;;
52620;SDS011;38515;53.160;6.990;2022-11-20T13:12:44;1696.63;;;999.90;;
52620;SDS011;38515;53.160;6.990;2022-11-20T13:18:38;1997.35;;;999.90;;
52620;SDS011;38515;53.160;6.990;2022-11-20T13:21:36;1995.85;;;999.90;;
52620;SDS011;38515;53.160;6.990;2022-11-20T13:27:17;1999.90;;;999.90;;
52620;SDS011;38515;53.160;6.990;2022-11-20T13:29:46;1416.97;;;999.90;;
52620;SDS011;38515;53.160;6.990;2022-11-20T13:32:25;1999.90;;;999.90;;
52620;SDS011;38515;53.160;6.990;2022-11-20T13:35:00;1821.20;;;999.90;;
52620;SDS011;38515;53.160;6.990;2022-11-20T13:37:34;1233.47;;;999.90;;
52620;SDS011;38515;53.160;6.990;2022-11-20T13:42:35;1914.40;;;999.90;;
52620;SDS011;38515;53.160;6.990;2022-11-20T13:45:11;1947.35;;;999.90;;
52620;SDS011;38515;53.160;6.990;2022-11-20T13:47:55;1890.65;;;999.90;;
52620;SDS011;38515;53.160;6.990;2022-11-20T13:53:13;1441.40;;;999.90;;
52620;SDS011;38515;53.160;6.990;2022-11-20T14:02:18;1420.15;;;999.90;;
52620;SDS011;38515;53.160;6.990;2022-11-20T14:04:59;1946.40;;;999.90;;
52620;SDS011;38515;53.160;6.990;2022-11-20T14:07:57;1938.20;;;999.90;;
52620;SDS011;38515;53.160;6.990;2022-11-20T14:14:18;685.08;;;649.05;;
52620;SDS011;38515;53.160;6.990;2022-11-20T14:19:47;1454.82;;;999.90;;
52620;SDS011;38515;53.160;6.990;2022-11-20T14:22:17;773.45;;;721.80;;
52620;SDS011;38515;53.160;6.990;2022-11-20T14:27:47;1384.05;;;999.90;;
52620;SDS011;38515;53.160;6.990;2022-11-20T14:30:42;773.78;;;727.25;;
52620;SDS011;38515;53.160;6.990;2022-11-20T14:33:18;1060.82;;;956.72;;
52620;SDS011;38515;53.160;6.990;2022-11-20T14:36:15;805.60;;;746.97;;
52620;SDS011;38515;53.160;6.990;2022-11-20T14:38:51;809.33;;;765.22;;
52620;SDS011;38515;53.160;6.990;2022-11-20T14:41:49;787.80;;;744.38;;
52620;SDS011;38515;53.160;6.990;2022-11-20T14:44:35;620.00;;;578.38;;
52620;SDS011;38515;53.160;6.990;2022-11-20T14:47:05;807.15;;;760.92;;
52620;SDS011;38515;53.160;6.990;2022-11-20T14:49:36;1038.88;;;938.78;;
52620;SDS011;38515;53.160;6.990;2022-11-20T14:52:18;766.13;;;702.83;;
52620;SDS011;38515;53.160;6.990;2022-11-20T14:54:54;799.90;;;739.95;;
52620;SDS011;38515;53.160;6.990;2022-11-20T15:00:52;853.90;;;803.92;;
52620;SDS011;38515;53.160;6.990;2022-11-20T15:03:23;727.05;;;675.50;;
52620;SDS011;38515;53.160;6.990;2022-11-20T15:06:28;1163.30;;;999.90;;
52620;SDS011;38515;53.160;6.990;2022-11-20T15:09:15;1999.90;;;999.90;;
52620;SDS011;38515;53.160;6.990;2022-11-20T15:11:55;1999.90;;;999.90;;
52620;SDS011;38515;53.160;6.990;2022-11-20T15:14:39;1999.90;;;999.90;;
52620;SDS011;38515;53.160;6.990;2022-11-20T15:17:10;1097.30;;;993.97;;
52620;SDS011;38515;53.160;6.990;2022-11-20T15:29:30;1999.90;;;999.90;;
52620;SDS011;38515;53.160;6.990;2022-11-20T15:32:26;1999.90;;;999.90;;
52620;SDS011;38515;53.160;6.990;2022-11-20T15:38:40;1999.90;;;999.90;;
52620;SDS011;38515;53.160;6.990;2022-11-20T15:41:06;1999.90;;;999.90;;
52620;SDS011;38515;53.160;6.990;2022-11-20T16:10:40;1999.90;;;999.90;;
52620;SDS011;38515;53.160;6.990;2022-11-20T16:24:04;1999.90;;;999.90;;
52620;SDS011;38515;53.160;6.990;2022-11-20T16:33:15;1999.90;;;999.90;;
52620;SDS011;38515;53.160;6.990;2022-11-20T16:40:18;1999.90;;;999.90;;
52620;SDS011;38515;53.160;6.990;2022-11-20T16:43:24;1999.90;;;999.90;;
52620;SDS011;38515;53.160;6.990;2022-11-20T16:46:54;1999.90;;;999.90;;
52620;SDS011;38515;53.160;6.990;2022-11-20T16:51:05;1999.90;;;999.90;;
52620;SDS011;38515;53.160;6.990;2022-11-20T16:53:49;1999.90;;;999.90;;
52620;SDS011;38515;53.160;6.990;2022-11-20T16:56:25;1999.90;;;999.90;;
52620;SDS011;38515;53.160;6.990;2022-11-20T17:02:21;1999.90;;;999.90;;
52620;SDS011;38515;53.160;6.990;2022-11-20T17:05:35;1999.90;;;999.90;;
52620;SDS011;38515;53.160;6.990;2022-11-20T17:17:56;1999.90;;;999.90;;
52620;SDS011;38515;53.160;6.990;2022-11-20T17:20:37;1999.90;;;999.90;;
52620;SDS011;38515;53.160;6.990;2022-11-20T17:27:19;1999.90;;;999.90;;
52620;SDS011;38515;53.160;6.990;2022-11-20T17:30:37;1999.90;;;999.90;;
52620;SDS011;38515;53.160;6.990;2022-11-20T17:52:35;1999.90;;;999.90;;
52620;SDS011;38515;53.160;6.990;2022-11-20T18:00:01;1999.90;;;999.90;;
52620;SDS011;38515;53.160;6.990;2022-11-20T18:10:33;1999.90;;;999.90;;
52620;SDS011;38515;53.160;6.990;2022-11-20T18:13:44;1999.90;;;999.90;;
52620;SDS011;38515;53.160;6.990;2022-11-20T18:28:40;1999.90;;;999.90;;
52620;SDS011;38515;53.160;6.990;2022-11-20T18:50:06;1999.90;;;999.90;;
52620;SDS011;38515;53.160;6.990;2022-11-20T18:52:36;1999.90;;;999.90;;
52620;SDS011;38515;53.160;6.990;2022-11-20T18:58:16;1999.90;;;999.90;;